sensor_id;sensor_type;location;lat;lon;timestamp;pressure;altitude;pressure_sealevel;temperature;humidity
16451;BME280;12243;42.708;23.310;2022-08-05T00:01:20;95148.19;;;23.74;58.16
16451;BME280;12243;42.708;23.310;2022-08-05T00:03:49;95146.94;;;23.70;57.93
16451;BME280;12243;42.708;23.310;2022-08-05T00:06:17;95147.75;;;23.58;57.93
16451;BME280;12243;42.708;23.310;2022-08-05T00:08:43;95150.59;;;23.56;58.18
16451;BME280;12243;42.708;23.310;2022-08-05T00:11:12;95152.66;;;23.47;58.32
16451;BME280;12243;42.708;23.310;2022-08-05T00:13:41;95137.50;;;23.15;58.81
16451;BME280;12243;42.708;23.310;2022-08-05T00:16:11;95139.03;;;22.76;60.40
16451;BME280;12243;42.708;23.310;2022-08-05T00:18:42;95138.97;;;22.49;60.76
16451;BME280;12243;42.708;23.310;2022-08-05T00:21:11;95141.59;;;22.01;61.84
16451;BME280;12243;42.708;23.310;2022-08-05T00:23:38;95143.56;;;21.93;63.71
16451;BME280;12243;42.708;23.310;2022-08-05T00:26:06;95134.00;;;21.98;63.28
16451;BME280;12243;42.708;23.310;2022-08-05T00:28:33;95136.31;;;22.08;62.27
16451;BME280;12243;42.708;23.310;2022-08-05T00:31:00;95136.25;;;21.95;62.60
16451;BME280;12243;42.708;23.310;2022-08-05T00:33:27;95132.94;;;21.93;63.85
16451;BME280;12243;42.708;23.310;2022-08-05T00:35:54;95133.06;;;22.12;63.23
16451;BME280;12243;42.708;23.310;2022-08-05T00:38:22;95132.44;;;22.10;61.79
16451;BME280;12243;42.708;23.310;2022-08-05T00:40:51;95133.88;;;22.13;62.74
16451;BME280;12243;42.708;23.310;2022-08-05T00:43:18;95131.13;;;22.21;62.20
16451;BME280;12243;42.708;23.310;2022-08-05T00:45:45;95133.78;;;22.34;62.18
16451;BME280;12243;42.708;23.310;2022-08-05T00:48:13;95136.03;;;22.31;61.24
16451;BME280;12243;42.708;23.310;2022-08-05T00:50:42;95129.50;;;22.33;62.19
16451;BME280;12243;42.708;23.310;2022-08-05T00:53:09;95126.28;;;22.45;61.30
16451;BME280;12243;42.708;23.310;2022-08-05T00:55:38;95134.88;;;22.47;61.67
16451;BME280;12243;42.708;23.310;2022-08-05T00:58:05;95131.63;;;22.51;61.54
16451;BME280;12243;42.708;23.310;2022-08-05T01:00:31;95129.50;;;22.27;61.22
16451;BME280;12243;42.708;23.310;2022-08-05T01:02:58;95129.34;;;22.07;62.25
16451;BME280;12243;42.708;23.310;2022-08-05T01:05:25;95128.03;;;21.83;63.76
16451;BME280;12243;42.708;23.310;2022-08-05T01:07:53;95135.59;;;21.93;63.91
16451;BME280;12243;42.708;23.310;2022-08-05T01:10:21;95129.34;;;22.07;63.27
16451;BME280;12243;42.708;23.310;2022-08-05T01:12:57;95129.78;;;22.04;62.98
16451;BME280;12243;42.708;23.310;2022-08-05T01:15:28;95132.56;;;21.96;63.65
16451;BME280;12243;42.708;23.310;2022-08-05T01:18:01;95133.28;;;22.11;63.25
16451;BME280;12243;42.708;23.310;2022-08-05T01:20:36;95125.38;;;22.18;62.85
16451;BME280;12243;42.708;23.310;2022-08-05T01:23:12;95136.25;;;22.29;62.50
16451;BME280;12243;42.708;23.310;2022-08-05T01:26:09;95143.44;;;22.49;61.87
16451;BME280;12243;42.708;23.310;2022-08-05T01:28:44;95135.22;;;22.30;62.39
16451;BME280;12243;42.708;23.310;2022-08-05T01:31:17;95149.13;;;22.32;62.19
16451;BME280;12243;42.708;23.310;2022-08-05T01:33:52;95143.34;;;22.22;62.11
16451;BME280;12243;42.708;23.310;2022-08-05T01:36:21;95134.53;;;22.15;62.93
16451;BME280;12243;42.708;23.310;2022-08-05T01:38:51;95140.47;;;22.17;61.36
16451;BME280;12243;42.708;23.310;2022-08-05T01:41:20;95140.66;;;22.16;61.77
16451;BME280;12243;42.708;23.310;2022-08-05T01:43:50;95133.63;;;22.01;62.37
16451;BME280;12243;42.708;23.310;2022-08-05T01:46:19;95145.25;;;22.00;62.47
16451;BME280;12243;42.708;23.310;2022-08-05T01:48:47;95148.63;;;22.16;61.90
16451;BME280;12243;42.708;23.310;2022-08-05T01:51:16;95148.47;;;21.96;61.76
16451;BME280;12243;42.708;23.310;2022-08-05T01:53:45;95151.69;;;21.84;62.80
16451;BME280;12243;42.708;23.310;2022-08-05T01:56:13;95142.75;;;21.92;62.50
16451;BME280;12243;42.708;23.310;2022-08-05T01:58:42;95144.09;;;21.81;62.58
16451;BME280;12243;42.708;23.310;2022-08-05T02:01:12;95147.22;;;21.92;62.57
16451;BME280;12243;42.708;23.310;2022-08-05T02:03:43;95149.25;;;21.89;62.53
16451;BME280;12243;42.708;23.310;2022-08-05T02:06:11;95145.59;;;21.91;62.49
16451;BME280;12243;42.708;23.310;2022-08-05T02:08:38;95145.59;;;21.91;62.74
16451;BME280;12243;42.708;23.310;2022-08-05T02:11:07;95140.41;;;21.76;62.42
16451;BME280;12243;42.708;23.310;2022-08-05T02:13:46;95142.53;;;21.59;62.99
16451;BME280;12243;42.708;23.310;2022-08-05T02:16:21;95138.72;;;21.68;63.93
16451;BME280;12243;42.708;23.310;2022-08-05T02:18:55;95147.47;;;21.62;63.66
16451;BME280;12243;42.708;23.310;2022-08-05T02:21:27;95142.94;;;21.56;63.33
16451;BME280;12243;42.708;23.310;2022-08-05T02:23:59;95138.91;;;21.38;63.07
16451;BME280;12243;42.708;23.310;2022-08-05T02:26:34;95135.03;;;21.34;64.16
16451;BME280;12243;42.708;23.310;2022-08-05T02:29:05;95140.19;;;21.21;64.67
16451;BME280;12243;42.708;23.310;2022-08-05T02:31:35;95138.63;;;21.33;65.17
16451;BME280;12243;42.708;23.310;2022-08-05T02:34:08;95141.19;;;21.42;64.67
16451;BME280;12243;42.708;23.310;2022-08-05T02:36:40;95132.56;;;21.61;63.93
16451;BME280;12243;42.708;23.310;2022-08-05T02:39:08;95133.41;;;21.68;63.37
16451;BME280;12243;42.708;23.310;2022-08-05T02:41:36;95131.41;;;21.70;62.96
16451;BME280;12243;42.708;23.310;2022-08-05T02:44:06;95133.78;;;21.65;63.21
16451;BME280;12243;42.708;23.310;2022-08-05T02:46:35;95131.56;;;21.69;63.47
16451;BME280;12243;42.708;23.310;2022-08-05T02:49:06;95138.91;;;21.67;62.74
16451;BME280;12243;42.708;23.310;2022-08-05T02:51:34;95133.47;;;21.47;63.21
16451;BME280;12243;42.708;23.310;2022-08-05T02:54:03;95132.91;;;21.30;64.22
16451;BME280;12243;42.708;23.310;2022-08-05T02:56:32;95138.13;;;21.23;64.99
16451;BME280;12243;42.708;23.310;2022-08-05T02:58:59;95134.94;;;21.28;65.13
16451;BME280;12243;42.708;23.310;2022-08-05T03:01:27;95126.56;;;21.03;65.87
16451;BME280;12243;42.708;23.310;2022-08-05T03:04:00;95128.00;;;21.05;65.88
16451;BME280;12243;42.708;23.310;2022-08-05T03:06:28;95131.81;;;20.96;66.42
16451;BME280;12243;42.708;23.310;2022-08-05T03:08:56;95138.41;;;21.07;65.90
16451;BME280;12243;42.708;23.310;2022-08-05T03:11:25;95138.41;;;21.07;66.32
16451;BME280;12243;42.708;23.310;2022-08-05T03:13:53;95135.50;;;21.02;66.22
16451;BME280;12243;42.708;23.310;2022-08-05T03:16:20;95140.44;;;20.83;66.60
16451;BME280;12243;42.708;23.310;2022-08-05T03:18:47;95145.72;;;20.47;67.29
16451;BME280;12243;42.708;23.310;2022-08-05T03:21:15;95141.56;;;20.23;69.23
16451;BME280;12243;42.708;23.310;2022-08-05T03:23:43;95146.47;;;20.26;69.90
16451;BME280;12243;42.708;23.310;2022-08-05T03:26:10;95144.81;;;20.55;69.37
16451;BME280;12243;42.708;23.310;2022-08-05T03:28:37;95140.19;;;20.78;68.21
16451;BME280;12243;42.708;23.310;2022-08-05T03:31:04;95138.78;;;21.04;67.30
16451;BME280;12243;42.708;23.310;2022-08-05T03:33:32;95144.66;;;21.21;66.19
16451;BME280;12243;42.708;23.310;2022-08-05T03:36:00;95137.81;;;21.33;65.96
16451;BME280;12243;42.708;23.310;2022-08-05T03:38:29;95144.44;;;21.44;65.72
16451;BME280;12243;42.708;23.310;2022-08-05T03:40:59;95148.47;;;21.61;65.03
16451;BME280;12243;42.708;23.310;2022-08-05T03:43:26;95139.72;;;21.67;64.39
16451;BME280;12243;42.708;23.310;2022-08-05T03:45:53;95137.69;;;21.62;63.69
16451;BME280;12243;42.708;23.310;2022-08-05T03:48:20;95142.16;;;21.62;63.78
16451;BME280;12243;42.708;23.310;2022-08-05T03:50:50;95138.97;;;21.73;63.70
16451;BME280;12243;42.708;23.310;2022-08-05T03:53:23;95141.53;;;21.95;63.18
16451;BME280;12243;42.708;23.310;2022-08-05T03:56:00;95151.91;;;22.18;62.08
16451;BME280;12243;42.708;23.310;2022-08-05T03:58:30;95143.88;;;22.59;60.48
16451;BME280;12243;42.708;23.310;2022-08-05T04:01:01;95149.34;;;22.99;59.25
16451;BME280;12243;42.708;23.310;2022-08-05T04:03:33;95142.84;;;23.41;57.79
16451;BME280;12243;42.708;23.310;2022-08-05T04:06:02;95138.38;;;23.68;56.51
16451;BME280;12243;42.708;23.310;2022-08-05T04:08:30;95146.09;;;23.90;55.75
16451;BME280;12243;42.708;23.310;2022-08-05T04:11:00;95147.28;;;24.14;55.39
16451;BME280;12243;42.708;23.310;2022-08-05T04:13:27;95145.56;;;24.46;54.21
16451;BME280;12243;42.708;23.310;2022-08-05T04:15:54;95152.00;;;24.70;53.36
16451;BME280;12243;42.708;23.310;2022-08-05T04:18:22;95151.03;;;24.96;52.34
16451;BME280;12243;42.708;23.310;2022-08-05T04:20:52;95149.72;;;25.18;51.25
16451;BME280;12243;42.708;23.310;2022-08-05T04:23:21;95148.31;;;25.41;50.90
16451;BME280;12243;42.708;23.310;2022-08-05T04:25:48;95146.00;;;25.70;49.83
16451;BME280;12243;42.708;23.310;2022-08-05T04:28:17;95143.63;;;25.61;49.44
16451;BME280;12243;42.708;23.310;2022-08-05T04:30:44;95144.06;;;25.83;49.16
16451;BME280;12243;42.708;23.310;2022-08-05T04:33:12;95140.34;;;26.09;48.83
16451;BME280;12243;42.708;23.310;2022-08-05T04:35:39;95146.56;;;26.40;47.67
16451;BME280;12243;42.708;23.310;2022-08-05T04:38:06;95131.03;;;26.67;47.06
16451;BME280;12243;42.708;23.310;2022-08-05T04:40:33;95138.59;;;26.89;46.60
16451;BME280;12243;42.708;23.310;2022-08-05T04:43:00;95142.81;;;26.96;46.63
16451;BME280;12243;42.708;23.310;2022-08-05T04:45:29;95138.88;;;27.11;46.00
16451;BME280;12243;42.708;23.310;2022-08-05T04:48:03;95137.56;;;27.31;44.89
16451;BME280;12243;42.708;23.310;2022-08-05T04:50:30;95143.28;;;27.05;44.98
16451;BME280;12243;42.708;23.310;2022-08-05T04:53:00;95143.47;;;26.62;46.63
16451;BME280;12243;42.708;23.310;2022-08-05T04:55:27;95142.41;;;26.63;46.95
16451;BME280;12243;42.708;23.310;2022-08-05T04:57:54;95137.44;;;26.96;46.67
16451;BME280;12243;42.708;23.310;2022-08-05T05:00:20;95145.44;;;27.15;45.66
16451;BME280;12243;42.708;23.310;2022-08-05T05:02:49;95136.16;;;27.29;46.13
16451;BME280;12243;42.708;23.310;2022-08-05T05:05:16;95139.25;;;27.44;45.32
16451;BME280;12243;42.708;23.310;2022-08-05T05:07:43;95142.69;;;27.87;44.93
16451;BME280;12243;42.708;23.310;2022-08-05T05:10:09;95141.59;;;28.23;43.36
16451;BME280;12243;42.708;23.310;2022-08-05T05:12:36;95140.06;;;28.51;42.96
16451;BME280;12243;42.708;23.310;2022-08-05T05:15:04;95134.31;;;28.59;42.42
16451;BME280;12243;42.708;23.310;2022-08-05T05:17:36;95127.47;;;28.27;42.77
16451;BME280;12243;42.708;23.310;2022-08-05T05:20:06;95139.25;;;28.50;42.65
16451;BME280;12243;42.708;23.310;2022-08-05T05:22:34;95133.91;;;28.79;42.30
16451;BME280;12243;42.708;23.310;2022-08-05T05:25:01;95133.69;;;28.80;42.25
16451;BME280;12243;42.708;23.310;2022-08-05T05:27:29;95129.88;;;28.93;42.06
16451;BME280;12243;42.708;23.310;2022-08-05T05:29:56;95129.53;;;29.01;41.78
16451;BME280;12243;42.708;23.310;2022-08-05T05:32:23;95134.91;;;29.18;41.34
16451;BME280;12243;42.708;23.310;2022-08-05T05:34:50;95130.53;;;29.29;41.08
16451;BME280;12243;42.708;23.310;2022-08-05T05:37:18;95136.16;;;28.99;41.64
16451;BME280;12243;42.708;23.310;2022-08-05T05:39:45;95129.53;;;28.61;42.41
16451;BME280;12243;42.708;23.310;2022-08-05T05:42:11;95129.81;;;28.36;43.12
16451;BME280;12243;42.708;23.310;2022-08-05T05:44:38;95136.53;;;28.62;42.84
16451;BME280;12243;42.708;23.310;2022-08-05T05:47:05;95135.91;;;28.71;42.36
16451;BME280;12243;42.708;23.310;2022-08-05T05:49:32;95136.34;;;28.80;43.04
16451;BME280;12243;42.708;23.310;2022-08-05T05:51:59;95134.75;;;28.96;41.92
16451;BME280;12243;42.708;23.310;2022-08-05T05:54:28;95135.78;;;29.07;41.72
16451;BME280;12243;42.708;23.310;2022-08-05T05:56:54;95137.88;;;29.33;41.78
16451;BME280;12243;42.708;23.310;2022-08-05T05:59:21;95134.66;;;29.65;40.64
16451;BME280;12243;42.708;23.310;2022-08-05T06:01:48;95140.72;;;29.94;40.19
16451;BME280;12243;42.708;23.310;2022-08-05T06:04:15;95146.44;;;29.98;39.68
16451;BME280;12243;42.708;23.310;2022-08-05T06:06:43;95145.56;;;29.75;40.32
16451;BME280;12243;42.708;23.310;2022-08-05T06:09:10;95143.38;;;29.72;40.00
16451;BME280;12243;42.708;23.310;2022-08-05T06:11:38;95141.47;;;30.06;39.87
16451;BME280;12243;42.708;23.310;2022-08-05T06:14:05;95143.41;;;30.11;39.52
16451;BME280;12243;42.708;23.310;2022-08-05T06:16:32;95143.75;;;29.98;39.67
16451;BME280;12243;42.708;23.310;2022-08-05T06:18:59;95143.28;;;29.67;39.83
16451;BME280;12243;42.708;23.310;2022-08-05T06:21:26;95141.72;;;29.54;40.45
16451;BME280;12243;42.708;23.310;2022-08-05T06:23:53;95139.72;;;29.78;40.67
16451;BME280;12243;42.708;23.310;2022-08-05T06:26:19;95142.91;;;30.14;40.16
16451;BME280;12243;42.708;23.310;2022-08-05T06:28:48;95144.03;;;30.57;39.24
16451;BME280;12243;42.708;23.310;2022-08-05T06:31:14;95139.50;;;30.79;38.84
16451;BME280;12243;42.708;23.310;2022-08-05T06:33:41;95136.69;;;30.96;38.68
16451;BME280;12243;42.708;23.310;2022-08-05T06:36:39;95138.81;;;31.43;37.82
16451;BME280;12243;42.708;23.310;2022-08-05T06:39:06;95140.50;;;31.54;36.81
16451;BME280;12243;42.708;23.310;2022-08-05T06:41:32;95141.53;;;31.48;37.64
16451;BME280;12243;42.708;23.310;2022-08-05T06:44:01;95132.91;;;31.46;37.49
16451;BME280;12243;42.708;23.310;2022-08-05T06:46:28;95132.22;;;31.61;36.85
16451;BME280;12243;42.708;23.310;2022-08-05T06:53:00;95132.88;;;31.73;36.72
16451;BME280;12243;42.708;23.310;2022-08-05T06:56:01;95132.09;;;31.78;36.93
16451;BME280;12243;42.708;23.310;2022-08-05T06:59:01;95134.28;;;31.81;36.97
16451;BME280;12243;42.708;23.310;2022-08-05T07:01:28;95125.38;;;31.81;37.06
16451;BME280;12243;42.708;23.310;2022-08-05T07:03:54;95129.88;;;32.07;36.37
16451;BME280;12243;42.708;23.310;2022-08-05T07:06:21;95131.53;;;32.13;36.57
16451;BME280;12243;42.708;23.310;2022-08-05T07:08:48;95125.66;;;32.21;35.91
16451;BME280;12243;42.708;23.310;2022-08-05T07:11:15;95127.81;;;32.24;35.55
16451;BME280;12243;42.708;23.310;2022-08-05T07:13:48;95133.28;;;31.87;35.79
16451;BME280;12243;42.708;23.310;2022-08-05T07:16:34;95129.81;;;31.97;36.24
16451;BME280;12243;42.708;23.310;2022-08-05T07:19:16;95130.78;;;31.86;35.86
16451;BME280;12243;42.708;23.310;2022-08-05T07:21:44;95131.06;;;31.52;36.81
16451;BME280;12243;42.708;23.310;2022-08-05T07:24:11;95134.94;;;31.07;36.85
16451;BME280;12243;42.708;23.310;2022-08-05T07:26:38;95133.88;;;31.08;37.16
16451;BME280;12243;42.708;23.310;2022-08-05T07:29:06;95131.47;;;30.84;38.18
16451;BME280;12243;42.708;23.310;2022-08-05T07:31:34;95131.97;;;30.81;37.56
16451;BME280;12243;42.708;23.310;2022-08-05T07:34:01;95129.03;;;30.83;37.76
16451;BME280;12243;42.708;23.310;2022-08-05T07:36:28;95122.91;;;31.15;38.13
16451;BME280;12243;42.708;23.310;2022-08-05T07:38:55;95124.19;;;31.34;37.51
16451;BME280;12243;42.708;23.310;2022-08-05T07:41:23;95123.97;;;31.41;36.82
16451;BME280;12243;42.708;23.310;2022-08-05T07:43:50;95124.91;;;31.24;37.08
16451;BME280;12243;42.708;23.310;2022-08-05T07:46:17;95121.84;;;31.43;36.48
16451;BME280;12243;42.708;23.310;2022-08-05T07:48:45;95126.47;;;31.47;36.49
16451;BME280;12243;42.708;23.310;2022-08-05T07:51:12;95128.59;;;31.77;36.30
16451;BME280;12243;42.708;23.310;2022-08-05T07:53:40;95122.34;;;32.09;35.55
16451;BME280;12243;42.708;23.310;2022-08-05T07:56:07;95126.72;;;32.20;35.98
16451;BME280;12243;42.708;23.310;2022-08-05T07:58:34;95120.25;;;32.21;35.87
16451;BME280;12243;42.708;23.310;2022-08-05T08:01:00;95124.34;;;32.29;34.77
16451;BME280;12243;42.708;23.310;2022-08-05T08:03:27;95123.34;;;32.40;34.60
16451;BME280;12243;42.708;23.310;2022-08-05T08:05:55;95120.34;;;32.37;34.64
16451;BME280;12243;42.708;23.310;2022-08-05T08:08:22;95124.88;;;32.26;35.21
16451;BME280;12243;42.708;23.310;2022-08-05T08:10:49;95117.22;;;32.50;34.31
16451;BME280;12243;42.708;23.310;2022-08-05T08:13:16;95114.59;;;32.76;33.89
16451;BME280;12243;42.708;23.310;2022-08-05T08:15:43;95121.63;;;32.82;34.02
16451;BME280;12243;42.708;23.310;2022-08-05T08:18:10;95116.75;;;32.84;34.10
16451;BME280;12243;42.708;23.310;2022-08-05T08:20:37;95112.25;;;33.00;33.03
16451;BME280;12243;42.708;23.310;2022-08-05T08:23:05;95117.78;;;32.62;34.67
16451;BME280;12243;42.708;23.310;2022-08-05T08:25:33;95117.22;;;32.55;34.70
16451;BME280;12243;42.708;23.310;2022-08-05T08:28:00;95111.09;;;32.75;33.75
16451;BME280;12243;42.708;23.310;2022-08-05T08:30:27;95110.34;;;32.95;33.97
16451;BME280;12243;42.708;23.310;2022-08-05T08:32:54;95113.53;;;32.87;33.21
16451;BME280;12243;42.708;23.310;2022-08-05T08:35:20;95112.44;;;32.78;33.90
16451;BME280;12243;42.708;23.310;2022-08-05T08:37:47;95107.63;;;32.85;33.86
16451;BME280;12243;42.708;23.310;2022-08-05T08:40:16;95108.22;;;33.07;33.49
16451;BME280;12243;42.708;23.310;2022-08-05T08:42:45;95103.13;;;33.36;32.96
16451;BME280;12243;42.708;23.310;2022-08-05T08:45:14;95104.22;;;33.51;32.54
16451;BME280;12243;42.708;23.310;2022-08-05T08:47:42;95107.75;;;33.51;32.25
16451;BME280;12243;42.708;23.310;2022-08-05T08:50:12;95104.75;;;33.32;32.40
16451;BME280;12243;42.708;23.310;2022-08-05T08:52:41;95107.16;;;33.18;31.46
16451;BME280;12243;42.708;23.310;2022-08-05T08:55:12;95098.94;;;32.78;32.35
16451;BME280;12243;42.708;23.310;2022-08-05T08:57:40;95094.38;;;32.78;33.02
16451;BME280;12243;42.708;23.310;2022-08-05T09:00:08;95101.19;;;33.01;32.39
16451;BME280;12243;42.708;23.310;2022-08-05T09:02:36;95094.19;;;33.15;30.94
16451;BME280;12243;42.708;23.310;2022-08-05T09:05:03;95099.63;;;33.46;31.34
16451;BME280;12243;42.708;23.310;2022-08-05T09:07:30;95090.97;;;33.75;30.35
16451;BME280;12243;42.708;23.310;2022-08-05T09:09:58;95087.16;;;34.06;29.86
16451;BME280;12243;42.708;23.310;2022-08-05T09:12:25;95079.53;;;34.29;29.36
16451;BME280;12243;42.708;23.310;2022-08-05T09:14:53;95080.00;;;34.46;29.43
16451;BME280;12243;42.708;23.310;2022-08-05T09:17:20;95072.66;;;34.67;28.58
16451;BME280;12243;42.708;23.310;2022-08-05T09:19:47;95068.81;;;34.73;28.16
16451;BME280;12243;42.708;23.310;2022-08-05T09:22:17;95066.56;;;34.91;26.65
16451;BME280;12243;42.708;23.310;2022-08-05T09:24:55;95063.50;;;34.97;27.31
16451;BME280;12243;42.708;23.310;2022-08-05T09:27:40;95058.06;;;35.07;26.90
16451;BME280;12243;42.708;23.310;2022-08-05T09:30:10;95057.91;;;35.28;26.47
16451;BME280;12243;42.708;23.310;2022-08-05T09:32:37;95054.94;;;35.29;26.30
16451;BME280;12243;42.708;23.310;2022-08-05T09:35:12;95056.47;;;35.06;26.85
16451;BME280;12243;42.708;23.310;2022-08-05T09:37:49;95055.25;;;35.23;26.48
16451;BME280;12243;42.708;23.310;2022-08-05T09:40:35;95046.84;;;35.24;26.61
16451;BME280;12243;42.708;23.310;2022-08-05T09:43:06;95045.63;;;35.06;26.54
16451;BME280;12243;42.708;23.310;2022-08-05T09:45:40;95046.47;;;34.97;26.65
16451;BME280;12243;42.708;23.310;2022-08-05T09:48:24;95044.91;;;35.30;27.19
16451;BME280;12243;42.708;23.310;2022-08-05T09:50:56;95040.00;;;35.32;26.90
16451;BME280;12243;42.708;23.310;2022-08-05T09:53:24;95040.44;;;35.44;26.83
16451;BME280;12243;42.708;23.310;2022-08-05T09:55:55;95033.91;;;35.50;26.87
16451;BME280;12243;42.708;23.310;2022-08-05T09:58:23;95036.97;;;35.73;26.63
16451;BME280;12243;42.708;23.310;2022-08-05T10:00:54;95036.00;;;35.88;26.88
16451;BME280;12243;42.708;23.310;2022-08-05T10:03:22;95030.56;;;36.17;25.89
16451;BME280;12243;42.708;23.310;2022-08-05T10:06:04;95024.69;;;36.10;26.01
16451;BME280;12243;42.708;23.310;2022-08-05T10:08:32;95029.66;;;36.03;26.17
16451;BME280;12243;42.708;23.310;2022-08-05T10:11:02;95017.50;;;36.19;26.13
16451;BME280;12243;42.708;23.310;2022-08-05T10:13:32;95030.69;;;36.07;26.15
16451;BME280;12243;42.708;23.310;2022-08-05T10:16:02;95023.41;;;35.44;26.51
16451;BME280;12243;42.708;23.310;2022-08-05T10:18:30;95017.34;;;35.23;26.93
16451;BME280;12243;42.708;23.310;2022-08-05T10:20:59;95015.53;;;35.42;26.81
16451;BME280;12243;42.708;23.310;2022-08-05T10:23:29;95014.25;;;35.69;26.64
16451;BME280;12243;42.708;23.310;2022-08-05T10:25:56;95013.00;;;35.85;25.90
16451;BME280;12243;42.708;23.310;2022-08-05T10:28:23;95021.53;;;35.97;25.77
16451;BME280;12243;42.708;23.310;2022-08-05T10:30:51;95016.66;;;35.70;26.02
16451;BME280;12243;42.708;23.310;2022-08-05T10:33:21;95011.16;;;35.51;26.28
16451;BME280;12243;42.708;23.310;2022-08-05T10:35:49;95006.44;;;35.33;26.01
16451;BME280;12243;42.708;23.310;2022-08-05T10:38:18;95014.03;;;35.31;26.71
16451;BME280;12243;42.708;23.310;2022-08-05T10:40:51;95000.94;;;35.38;26.47
16451;BME280;12243;42.708;23.310;2022-08-05T10:43:30;95000.75;;;35.64;26.63
16451;BME280;12243;42.708;23.310;2022-08-05T10:46:00;95001.56;;;35.64;26.66
16451;BME280;12243;42.708;23.310;2022-08-05T10:48:30;95004.97;;;35.75;25.82
16451;BME280;12243;42.708;23.310;2022-08-05T10:51:02;94998.56;;;35.66;26.31
16451;BME280;12243;42.708;23.310;2022-08-05T10:53:38;94999.13;;;35.63;26.11
16451;BME280;12243;42.708;23.310;2022-08-05T10:56:08;94985.41;;;35.49;26.20
16451;BME280;12243;42.708;23.310;2022-08-05T10:58:35;94992.66;;;35.29;26.37
16451;BME280;12243;42.708;23.310;2022-08-05T11:01:12;94993.00;;;34.83;27.25
16451;BME280;12243;42.708;23.310;2022-08-05T11:04:05;94988.31;;;34.94;26.88
16451;BME280;12243;42.708;23.310;2022-08-05T11:06:34;94979.94;;;35.25;26.15
16451;BME280;12243;42.708;23.310;2022-08-05T11:09:17;94975.63;;;35.53;26.44
16451;BME280;12243;42.708;23.310;2022-08-05T11:11:45;94972.44;;;35.75;26.12
16451;BME280;12243;42.708;23.310;2022-08-05T11:14:23;94977.09;;;35.93;25.83
16451;BME280;12243;42.708;23.310;2022-08-05T11:17:26;94973.06;;;36.15;25.93
16451;BME280;12243;42.708;23.310;2022-08-05T11:19:55;94978.94;;;36.22;25.46
16451;BME280;12243;42.708;23.310;2022-08-05T11:22:41;94976.81;;;36.19;25.40
16451;BME280;12243;42.708;23.310;2022-08-05T11:25:30;94972.25;;;35.90;25.59
16451;BME280;12243;42.708;23.310;2022-08-05T11:31:23;94972.94;;;36.25;25.43
16451;BME280;12243;42.708;23.310;2022-08-05T11:33:55;94967.53;;;36.25;25.59
16451;BME280;12243;42.708;23.310;2022-08-05T11:36:45;94962.34;;;36.47;25.57
16451;BME280;12243;42.708;23.310;2022-08-05T11:39:14;94952.97;;;36.78;25.14
16451;BME280;12243;42.708;23.310;2022-08-05T11:41:49;94956.22;;;37.12;25.42
16451;BME280;12243;42.708;23.310;2022-08-05T11:44:19;94953.56;;;37.26;23.99
16451;BME280;12243;42.708;23.310;2022-08-05T11:46:47;94955.41;;;36.79;24.67
16451;BME280;12243;42.708;23.310;2022-08-05T11:49:17;94950.22;;;36.40;24.50
16451;BME280;12243;42.708;23.310;2022-08-05T11:51:48;94949.13;;;35.74;25.67
16451;BME280;12243;42.708;23.310;2022-08-05T11:54:21;94954.03;;;35.72;25.69
16451;BME280;12243;42.708;23.310;2022-08-05T11:56:52;94948.09;;;36.18;25.25
16451;BME280;12243;42.708;23.310;2022-08-05T11:59:20;94955.69;;;36.59;24.98
16451;BME280;12243;42.708;23.310;2022-08-05T12:01:55;94951.13;;;36.73;25.30
16451;BME280;12243;42.708;23.310;2022-08-05T12:04:23;94943.84;;;36.87;24.89
16451;BME280;12243;42.708;23.310;2022-08-05T12:06:51;94950.66;;;37.36;24.05
16451;BME280;12243;42.708;23.310;2022-08-05T12:09:22;94940.56;;;37.56;23.65
16451;BME280;12243;42.708;23.310;2022-08-05T12:11:50;94951.22;;;37.52;23.52
16451;BME280;12243;42.708;23.310;2022-08-05T12:14:17;94950.94;;;37.67;23.82
16451;BME280;12243;42.708;23.310;2022-08-05T12:16:45;94941.00;;;38.04;22.97
16451;BME280;12243;42.708;23.310;2022-08-05T12:19:14;94940.28;;;38.63;22.35
16451;BME280;12243;42.708;23.310;2022-08-05T12:21:44;94939.22;;;38.86;22.05
16451;BME280;12243;42.708;23.310;2022-08-05T12:24:14;94932.47;;;39.06;21.98
16451;BME280;12243;42.708;23.310;2022-08-05T12:26:44;94930.84;;;39.05;22.28
16451;BME280;12243;42.708;23.310;2022-08-05T12:29:13;94934.69;;;38.81;22.79
16451;BME280;12243;42.708;23.310;2022-08-05T12:31:44;94928.25;;;38.41;23.72
16451;BME280;12243;42.708;23.310;2022-08-05T12:34:11;94926.25;;;37.64;24.25
16451;BME280;12243;42.708;23.310;2022-08-05T12:36:39;94921.75;;;36.94;24.44
16451;BME280;12243;42.708;23.310;2022-08-05T12:39:06;94929.75;;;36.10;25.50
16451;BME280;12243;42.708;23.310;2022-08-05T12:41:36;94927.72;;;35.48;26.69
16451;BME280;12243;42.708;23.310;2022-08-05T12:44:06;94913.06;;;34.91;26.86
16451;BME280;12243;42.708;23.310;2022-08-05T12:46:34;94917.78;;;34.75;27.58
16451;BME280;12243;42.708;23.310;2022-08-05T12:49:07;94904.66;;;34.58;27.60
16451;BME280;12243;42.708;23.310;2022-08-05T12:51:46;94901.38;;;34.67;27.19
16451;BME280;12243;42.708;23.310;2022-08-05T12:54:20;94911.53;;;35.14;26.66
16451;BME280;12243;42.708;23.310;2022-08-05T12:56:50;94905.94;;;35.59;26.46
16451;BME280;12243;42.708;23.310;2022-08-05T12:59:19;94898.91;;;36.06;25.81
16451;BME280;12243;42.708;23.310;2022-08-05T13:01:54;94899.88;;;36.34;25.29
16451;BME280;12243;42.708;23.310;2022-08-05T13:04:25;94902.13;;;36.83;24.50
16451;BME280;12243;42.708;23.310;2022-08-05T13:06:53;94903.81;;;37.12;23.58
16451;BME280;12243;42.708;23.310;2022-08-05T13:09:22;94894.66;;;37.08;23.86
16451;BME280;12243;42.708;23.310;2022-08-05T13:11:50;94898.91;;;36.95;24.27